createdAt,value
2022-09-11T00:01:47.858Z,98722.00
2022-09-11T00:04:15.561Z,98717.00
2022-09-11T00:06:43.899Z,98716.00
2022-09-11T00:09:11.502Z,98718.00
2022-09-11T00:11:42.565Z,98687.00
2022-09-11T00:14:14.956Z,98701.00
2022-09-11T00:16:47.087Z,98695.00
2022-09-11T00:19:20.112Z,98715.00
2022-09-11T00:21:55.524Z,98699.00
2022-09-11T00:24:22.970Z,98717.00
2022-09-11T00:26:50.270Z,98680.00
2022-09-11T00:29:17.933Z,98676.00
2022-09-11T00:31:45.573Z,98671.00
2022-09-11T00:34:12.958Z,98679.00
2022-09-11T00:36:41.646Z,98682.00
2022-09-11T00:39:12.891Z,98674.00
2022-09-11T00:41:45.012Z,98669.00
2022-09-11T00:44:19.495Z,98705.00
2022-09-11T00:46:55.998Z,98677.00
2022-09-11T00:49:47.745Z,98665.00
2022-09-11T00:52:37.737Z,98711.00
2022-09-11T00:55:14.611Z,98674.00
2022-09-11T00:58:16.553Z,98696.00
2022-09-11T01:00:45.948Z,98681.00
2022-09-11T01:03:13.592Z,98659.00
2022-09-11T01:05:43.448Z,98703.00
2022-09-11T01:08:10.895Z,98658.00
2022-09-11T01:11:07.078Z,98683.00
2022-09-11T01:14:30.258Z,98672.00
2022-09-11T01:17:21.481Z,98678.00
2022-09-11T01:20:47.029Z,98685.00
2022-09-11T01:24:00.643Z,98689.00
2022-09-11T01:27:16.658Z,98681.00
2022-09-11T01:29:59.250Z,98683.00
2022-09-11T01:33:17.231Z,98640.00
2022-09-11T01:36:21.154Z,98647.00
2022-09-11T01:38:59.057Z,98677.00
2022-09-11T01:41:46.054Z,98672.00
2022-09-11T01:44:37.822Z,98656.00
2022-09-11T01:47:12.679Z,98672.00
2022-09-11T01:50:11.049Z,98668.00
2022-09-11T01:53:03.381Z,98680.00
2022-09-11T01:55:53.253Z,98669.00
2022-09-11T01:58:36.412Z,98677.00
2022-09-11T02:01:39.348Z,98671.00
2022-09-11T02:04:20.885Z,98667.00
2022-09-11T02:07:13.581Z,98683.00
2022-09-11T02:09:55.112Z,98669.00
2022-09-11T02:12:34.334Z,98661.00
2022-09-11T02:15:01.892Z,98680.00
2022-09-11T02:18:00.095Z,98670.00
2022-09-11T02:20:28.592Z,98695.00
2022-09-11T02:22:56.959Z,98693.00
2022-09-11T02:25:24.745Z,98691.00
2022-09-11T02:27:52.053Z,98697.00
2022-09-11T02:30:20.154Z,98689.00
2022-09-11T02:32:47.557Z,98695.00
2022-09-11T02:35:16.417Z,98694.00
2022-09-11T02:38:33.394Z,98685.00
2022-09-11T02:41:20.036Z,98688.00
2022-09-11T02:44:44.895Z,98691.00
2022-09-11T02:48:06.600Z,98689.00
2022-09-11T02:51:25.316Z,98694.00
2022-09-11T02:54:34.294Z,98679.00
2022-09-11T02:57:36.065Z,98683.00
2022-09-11T03:00:09.597Z,98686.00
2022-09-11T03:02:43.098Z,98680.00
2022-09-11T03:05:12.346Z,98681.00
2022-09-11T03:07:41.601Z,98674.00
2022-09-11T03:10:11.593Z,98668.00
2022-09-11T03:12:39.889Z,98681.00
2022-09-11T03:15:10.464Z,98668.00
2022-09-11T03:17:37.676Z,98659.00
2022-09-11T03:20:06.300Z,98672.00
2022-09-11T03:22:33.600Z,98665.00
2022-09-11T03:25:00.950Z,98639.00
2022-09-11T03:27:31.021Z,98666.00
2022-09-11T03:29:58.713Z,98654.00
2022-09-11T03:32:26.017Z,98660.00
2022-09-11T03:34:53.294Z,98656.00
2022-09-11T03:37:20.655Z,98660.00
2022-09-11T03:39:48.345Z,98666.00
2022-09-11T03:42:16.024Z,98651.00
2022-09-11T03:44:45.597Z,98655.00
2022-09-11T03:47:14.718Z,98655.00
2022-09-11T03:49:41.995Z,98658.00
2022-09-11T03:52:09.277Z,98645.00
2022-09-11T03:54:36.656Z,98653.00
2022-09-11T03:57:04.242Z,98662.00
2022-09-11T03:59:31.601Z,98647.00
2022-09-11T04:01:58.984Z,98655.00
2022-09-11T04:04:26.346Z,98606.00
2022-09-11T04:06:53.649Z,98650.00
2022-09-11T04:09:20.928Z,98647.00
2022-09-11T04:11:48.244Z,98653.00
2022-09-11T04:14:16.083Z,98634.00
2022-09-11T04:16:44.202Z,98643.00
2022-09-11T04:19:13.288Z,98646.00
2022-09-11T04:21:40.787Z,98655.00
2022-09-11T04:24:10.027Z,98656.00
2022-09-11T04:26:37.412Z,98656.00
2022-09-11T04:29:06.597Z,98661.00
2022-09-11T04:31:36.611Z,98656.00
2022-09-11T04:34:04.506Z,98649.00
2022-09-11T04:36:31.816Z,98668.00
2022-09-11T04:39:00.779Z,98662.00
2022-09-11T04:41:29.008Z,98665.00
2022-09-11T04:44:04.880Z,98673.00
2022-09-11T04:46:34.397Z,98652.00
2022-09-11T04:49:02.336Z,98661.00
2022-09-11T04:51:36.545Z,98660.00
2022-09-11T04:54:05.238Z,98659.00
2022-09-11T04:56:39.975Z,98668.00
2022-09-11T04:59:16.473Z,98676.00
2022-09-11T05:01:44.418Z,98673.00
2022-09-11T05:04:21.780Z,98680.00
2022-09-11T05:06:50.260Z,98681.00
2022-09-11T05:09:19.093Z,98679.00
2022-09-11T05:11:46.762Z,98677.00
2022-09-11T05:14:14.076Z,98674.00
2022-09-11T05:16:41.389Z,98683.00
2022-09-11T05:19:08.686Z,98688.00
2022-09-11T05:21:36.729Z,98692.00
2022-09-11T05:24:04.541Z,98686.00
2022-09-11T05:26:38.008Z,98683.00
2022-09-11T05:29:13.402Z,98696.00
2022-09-11T05:31:41.260Z,98694.00
2022-09-11T05:34:08.754Z,98700.00
2022-09-11T05:36:36.142Z,98719.00
2022-09-11T05:39:04.902Z,98723.00
2022-09-11T05:41:32.245Z,98713.00
2022-09-11T05:44:00.602Z,98727.00
2022-09-11T05:46:27.865Z,98715.00
2022-09-11T05:48:55.186Z,98739.00
2022-09-11T05:51:23.007Z,98743.00
2022-09-11T05:53:55.602Z,98749.00
2022-09-11T05:56:25.696Z,98738.00
2022-09-11T05:58:53.276Z,98705.00
2022-09-11T06:01:28.806Z,98707.00
2022-09-11T06:03:57.985Z,98743.00
2022-09-11T06:06:25.729Z,98756.00
2022-09-11T06:08:53.404Z,98760.00
2022-09-11T06:11:22.278Z,98764.00
2022-09-11T06:13:50.555Z,98748.00
2022-09-11T06:16:24.164Z,98745.00
2022-09-11T06:18:54.223Z,98760.00
2022-09-11T06:21:27.254Z,98759.00
2022-09-11T06:23:54.844Z,98766.00
2022-09-11T06:26:26.693Z,98750.00
2022-09-11T06:28:57.967Z,98764.00
2022-09-11T06:31:27.733Z,98753.00
2022-09-11T06:33:55.483Z,98764.00
2022-09-11T06:36:32.856Z,98757.00
2022-09-11T06:39:00.335Z,98770.00
2022-09-11T06:41:28.464Z,98764.00
2022-09-11T06:43:55.953Z,98761.00
2022-09-11T06:46:25.778Z,98759.00
2022-09-11T06:48:54.989Z,98749.00
2022-09-11T06:51:23.982Z,98759.00
2022-09-11T06:54:02.255Z,98761.00
2022-09-11T06:56:32.824Z,98760.00
2022-09-11T06:59:00.416Z,98749.00
2022-09-11T07:01:28.507Z,98758.00
2022-09-11T07:03:56.517Z,98740.00
2022-09-11T07:06:30.293Z,98748.00
2022-09-11T07:09:02.602Z,98746.00
2022-09-11T07:11:35.846Z,98748.00
2022-09-11T07:14:06.244Z,98748.00
2022-09-11T07:16:34.464Z,98748.00
2022-09-11T07:19:05.408Z,98746.00
2022-09-11T07:21:34.427Z,98752.00
2022-09-11T07:24:02.196Z,98750.00
2022-09-11T07:26:30.466Z,98754.00
2022-09-11T07:28:59.693Z,98755.00
2022-09-11T07:31:35.477Z,98754.00
2022-09-11T07:34:05.612Z,98722.00
2022-09-11T07:36:35.869Z,98751.00
2022-09-11T07:39:04.088Z,98754.00
2022-09-11T07:41:31.898Z,98763.00
2022-09-11T07:44:00.742Z,98753.00
2022-09-11T07:46:29.879Z,98763.00
2022-09-11T07:48:57.642Z,98758.00
2022-09-11T07:51:27.627Z,98752.00
2022-09-11T07:53:58.852Z,98765.00
2022-09-11T07:56:28.159Z,98763.00
2022-09-11T07:58:57.644Z,98765.00
2022-09-11T08:01:32.363Z,98761.00
2022-09-11T08:04:10.135Z,98766.00
2022-09-11T08:06:38.743Z,98774.00
2022-09-11T08:09:13.097Z,98755.00
2022-09-11T08:11:48.461Z,98763.00
2022-09-11T08:14:17.653Z,98765.00
2022-09-11T08:16:45.317Z,98770.00
2022-09-11T08:19:21.470Z,98763.00
2022-09-11T08:21:50.369Z,98762.00
2022-09-11T08:24:20.266Z,98753.00
2022-09-11T08:26:49.082Z,98756.00
2022-09-11T08:29:18.273Z,98767.00
2022-09-11T08:31:45.608Z,98767.00
2022-09-11T08:34:14.796Z,98760.00
2022-09-11T08:36:42.092Z,98754.00
2022-09-11T08:39:09.838Z,98752.00
2022-09-11T08:42:07.379Z,98757.00
2022-09-11T08:44:59.108Z,98754.00
2022-09-11T08:47:35.118Z,98759.00
2022-09-11T08:50:28.231Z,98756.00
2022-09-11T08:52:56.608Z,98756.00
2022-09-11T08:55:49.586Z,98766.00
2022-09-11T08:59:37.096Z,98756.00
2022-09-11T09:02:42.269Z,98760.00
2022-09-11T09:06:05.217Z,98758.00
2022-09-11T09:09:24.480Z,98766.00
2022-09-11T09:12:45.666Z,98764.00
2022-09-11T09:15:29.544Z,98768.00
2022-09-11T09:18:17.096Z,98769.00
2022-09-11T09:21:13.775Z,98767.00
2022-09-11T09:23:52.405Z,98759.00
2022-09-11T09:26:20.940Z,98762.00
2022-09-11T09:28:57.543Z,98770.00
2022-09-11T09:31:31.698Z,98767.00
2022-09-11T09:34:24.850Z,98762.00
2022-09-11T09:37:21.119Z,98757.00
2022-09-11T09:39:50.704Z,98753.00
2022-09-11T09:42:49.748Z,98746.00
2022-09-11T09:45:39.959Z,98753.00
2022-09-11T09:48:11.770Z,98748.00
2022-09-11T09:50:44.705Z,98753.00
2022-09-11T09:54:01.418Z,98753.00
2022-09-11T09:56:32.123Z,98748.00
2022-09-11T09:59:13.109Z,98749.00
2022-09-11T10:01:46.569Z,98742.00
2022-09-11T10:04:26.978Z,98738.00
2022-09-11T10:07:22.315Z,98748.00
2022-09-11T10:10:03.192Z,98732.00
2022-09-11T10:12:33.446Z,98745.00
2022-09-11T10:15:03.145Z,98736.00
2022-09-11T10:17:35.270Z,98734.00
2022-09-11T10:20:26.903Z,98733.00
2022-09-11T10:22:56.102Z,98733.00
2022-09-11T10:25:27.281Z,98726.00
2022-09-11T10:28:15.083Z,98731.00
2022-09-11T10:30:53.118Z,98725.00
2022-09-11T10:33:38.418Z,98726.00
2022-09-11T10:36:09.994Z,98728.00
2022-09-11T10:38:48.533Z,98723.00
2022-09-11T10:41:21.579Z,98727.00
2022-09-11T10:44:04.263Z,98720.00
2022-09-11T10:46:46.042Z,98725.00
2022-09-11T10:49:22.125Z,98715.00
2022-09-11T10:52:09.704Z,98713.00
2022-09-11T10:55:15.152Z,98714.00
2022-09-11T10:57:57.720Z,98707.00
2022-09-11T11:00:32.088Z,98703.00
2022-09-11T11:03:24.864Z,98701.00
2022-09-11T11:06:44.378Z,98706.00
2022-09-11T11:10:03.263Z,98706.00
2022-09-11T11:13:37.507Z,98690.00
2022-09-11T11:16:55.284Z,98691.00
2022-09-11T11:20:07.096Z,98692.00
2022-09-11T11:23:24.220Z,98691.00
2022-09-11T11:26:48.167Z,98690.00
2022-09-11T11:29:43.216Z,98693.00
2022-09-11T11:33:43.288Z,98708.00
2022-09-11T11:37:15.151Z,98710.00
2022-09-11T11:40:23.480Z,98703.00
2022-09-11T11:43:17.569Z,98707.00
2022-09-11T11:46:05.130Z,98707.00
2022-09-11T11:48:58.849Z,98690.00
2022-09-11T11:51:53.449Z,98694.00
2022-09-11T11:54:36.263Z,98674.00
2022-09-11T11:57:18.636Z,98667.00
2022-09-11T12:00:10.429Z,98675.00
2022-09-11T12:03:10.120Z,98670.00
2022-09-11T12:05:40.300Z,98669.00
2022-09-11T12:08:15.836Z,98666.00
2022-09-11T12:11:02.248Z,98666.00
2022-09-11T12:13:36.421Z,98671.00
2022-09-11T12:16:24.640Z,98663.00
2022-09-11T12:19:20.964Z,98665.00
2022-09-11T12:21:53.996Z,98662.00
2022-09-11T12:25:00.736Z,98656.00
2022-09-11T12:27:37.305Z,98659.00
2022-09-11T12:30:29.424Z,98660.00
2022-09-11T12:33:02.241Z,98683.00
2022-09-11T12:35:50.613Z,98660.00
2022-09-11T12:38:47.271Z,98686.00
2022-09-11T12:41:35.020Z,98673.00
2022-09-11T12:44:30.426Z,98643.00
2022-09-11T12:46:57.454Z,98641.00
2022-09-11T12:49:27.158Z,98650.00
2022-09-11T12:52:01.438Z,98650.00
2022-09-11T12:54:42.344Z,98640.00
2022-09-11T12:57:38.055Z,98661.00
2022-09-11T13:00:28.231Z,98664.00
2022-09-11T13:02:58.210Z,98659.00
2022-09-11T13:05:39.848Z,98646.00
2022-09-11T13:08:26.934Z,98624.00
2022-09-11T13:11:15.473Z,98630.00
2022-09-11T13:13:45.005Z,98623.00
2022-09-11T13:16:30.976Z,98631.00
2022-09-11T13:19:14.426Z,98619.00
2022-09-11T13:21:44.543Z,98619.00
2022-09-11T13:24:41.261Z,98608.00
2022-09-11T13:27:28.243Z,98594.00
2022-09-11T13:30:00.393Z,98608.00
2022-09-11T13:32:28.075Z,98607.00
2022-09-11T13:35:02.260Z,98610.00
2022-09-11T13:38:18.374Z,98591.00
2022-09-11T13:41:06.928Z,98600.00
2022-09-11T13:43:49.092Z,98595.00
2022-09-11T13:46:16.252Z,98604.00
2022-09-11T13:48:46.688Z,98599.00
2022-09-11T13:51:26.745Z,98597.00
2022-09-11T13:54:23.774Z,98593.00
2022-09-11T13:56:58.313Z,98598.00
2022-09-11T13:59:44.838Z,98594.00
2022-09-11T14:02:35.322Z,98594.00
2022-09-11T14:05:26.613Z,98582.00
2022-09-11T14:08:25.622Z,98569.00
2022-09-11T14:11:01.152Z,98568.00
2022-09-11T14:14:17.144Z,98563.00
2022-09-11T14:17:01.302Z,98564.00
2022-09-11T14:19:32.866Z,98562.00
2022-09-11T14:22:01.924Z,98550.00
2022-09-11T14:24:34.995Z,98554.00
2022-09-11T14:27:31.199Z,98538.00
2022-09-11T14:29:58.952Z,98538.00
2022-09-11T14:32:39.019Z,98530.00
2022-09-11T14:35:11.576Z,98534.00
2022-09-11T14:37:45.830Z,98541.00
2022-09-11T14:40:19.387Z,98526.00
2022-09-11T14:42:47.279Z,98519.00
2022-09-11T14:45:24.533Z,98518.00
2022-09-11T14:47:53.485Z,98514.00
2022-09-11T14:50:21.188Z,98514.00
2022-09-11T14:52:48.539Z,98508.00
2022-09-11T14:55:20.544Z,98511.00
2022-09-11T14:57:47.996Z,98516.00
2022-09-11T15:00:19.970Z,98514.00
2022-09-11T15:02:47.792Z,98512.00
2022-09-11T15:05:22.885Z,98515.00
2022-09-11T15:07:50.278Z,98521.00
2022-09-11T15:10:17.570Z,98515.00
2022-09-11T15:12:44.873Z,98518.00
2022-09-11T15:15:13.158Z,98522.00
2022-09-11T15:17:40.455Z,98518.00
2022-09-11T15:20:10.158Z,98510.00
2022-09-11T15:22:39.737Z,98511.00
2022-09-11T15:25:08.142Z,98507.00
2022-09-11T15:27:35.437Z,98508.00
2022-09-11T15:30:03.211Z,98508.00
2022-09-11T15:32:31.422Z,98507.00
2022-09-11T15:34:58.749Z,98506.00
2022-09-11T15:37:26.289Z,98509.00
2022-09-11T15:39:53.600Z,98505.00
2022-09-11T15:42:21.008Z,98501.00
2022-09-11T15:44:50.616Z,98509.00
2022-09-11T15:47:20.515Z,98505.00
2022-09-11T15:49:48.412Z,98508.00
2022-09-11T15:52:15.814Z,98499.00
2022-09-11T15:54:45.470Z,98510.00
2022-09-11T15:57:13.057Z,98507.00
2022-09-11T15:59:40.847Z,98500.00
2022-09-11T16:02:09.321Z,98503.00
2022-09-11T16:04:37.040Z,98509.00
2022-09-11T16:07:04.597Z,98508.00
2022-09-11T16:09:33.300Z,98507.00
2022-09-11T16:12:01.929Z,98502.00
2022-09-11T16:14:38.409Z,98506.00
2022-09-11T16:17:07.841Z,98508.00
2022-09-11T16:19:36.320Z,98502.00
2022-09-11T16:22:07.025Z,98501.00
2022-09-11T16:24:37.532Z,98496.00
2022-09-11T16:27:10.446Z,98500.00
2022-09-11T16:32:34.115Z,98494.00
2022-09-11T16:35:01.415Z,98496.00
2022-09-11T16:37:29.030Z,98484.00
2022-09-11T16:39:56.435Z,98499.00
2022-09-11T16:42:23.793Z,98497.00
2022-09-11T16:44:51.294Z,98491.00
2022-09-11T16:47:20.123Z,98486.00
2022-09-11T16:50:06.539Z,98502.00
2022-09-11T16:52:35.176Z,98487.00
2022-09-11T16:55:03.680Z,98488.00
2022-09-11T16:57:31.401Z,98487.00
2022-09-11T17:00:00.137Z,98486.00
2022-09-11T17:02:27.710Z,98490.00
2022-09-11T17:04:54.984Z,98487.00
2022-09-11T17:07:24.550Z,98486.00
2022-09-11T17:09:51.861Z,98483.00
2022-09-11T17:12:19.136Z,98489.00
2022-09-11T17:14:46.446Z,98479.00
2022-09-11T17:17:13.756Z,98482.00
2022-09-11T17:19:41.071Z,98477.00
2022-09-11T17:22:08.652Z,98465.00
2022-09-11T17:24:36.393Z,98467.00
2022-09-11T17:27:03.900Z,98475.00
2022-09-11T17:29:31.287Z,98476.00
2022-09-11T17:32:23.646Z,98483.00
2022-09-11T17:34:47.719Z,98477.00
2022-09-11T17:37:15.837Z,98472.00
2022-09-11T17:39:44.317Z,98472.00
2022-09-11T17:42:13.405Z,98465.00
2022-09-11T17:44:43.705Z,98473.00
2022-09-11T17:47:11.042Z,98473.00
2022-09-11T17:49:38.678Z,98477.00
2022-09-11T17:52:07.399Z,98469.00
2022-09-11T17:54:34.920Z,98482.00
2022-09-11T17:57:02.293Z,98480.00
2022-09-11T17:59:29.656Z,98480.00
2022-09-11T18:01:59.062Z,98482.00
2022-09-11T18:04:26.905Z,98479.00
2022-09-11T18:06:55.051Z,98484.00
2022-09-11T18:09:23.438Z,98489.00
2022-09-11T18:11:53.996Z,98488.00
2022-09-11T18:14:21.611Z,98489.00
2022-09-11T18:16:49.279Z,98495.00
2022-09-11T18:19:21.910Z,98502.00
2022-09-11T18:21:51.636Z,98489.00
2022-09-11T18:24:20.765Z,98504.00
2022-09-11T18:27:00.512Z,98501.00
2022-09-11T18:29:30.238Z,98498.00
2022-09-11T18:31:59.949Z,98503.00
2022-09-11T18:34:28.612Z,98489.00
2022-09-11T18:36:56.145Z,98500.00
2022-09-11T18:39:24.297Z,98501.00
2022-09-11T18:41:55.271Z,98510.00
2022-09-11T18:44:25.193Z,98507.00
2022-09-11T18:46:56.128Z,98500.00
2022-09-11T18:49:23.941Z,98503.00
2022-09-11T18:51:52.140Z,98504.00
2022-09-11T18:54:21.587Z,98505.00
2022-09-11T18:56:50.635Z,98510.00
2022-09-11T18:59:20.134Z,98509.00
2022-09-11T19:01:47.971Z,98512.00
2022-09-11T19:04:17.174Z,98519.00
2022-09-11T19:06:45.277Z,98518.00
2022-09-11T19:09:13.441Z,98513.00
2022-09-11T19:11:41.448Z,98509.00
2022-09-11T19:14:12.218Z,98514.00
2022-09-11T19:16:40.618Z,98513.00
2022-09-11T19:19:08.772Z,98516.00
2022-09-11T19:21:38.319Z,98516.00
2022-09-11T19:24:07.514Z,98524.00
2022-09-11T19:26:41.859Z,98528.00
2022-09-11T19:29:10.245Z,98523.00
2022-09-11T19:31:39.188Z,98535.00
2022-09-11T19:34:11.426Z,98527.00
2022-09-11T19:36:39.269Z,98535.00
2022-09-11T19:39:07.214Z,98537.00
2022-09-11T19:41:38.880Z,98531.00
2022-09-11T19:44:12.283Z,98544.00
2022-09-11T19:46:41.681Z,98545.00
2022-09-11T19:49:11.209Z,98552.00
2022-09-11T19:51:42.941Z,98550.00
2022-09-11T19:54:14.353Z,98547.00
2022-09-11T19:56:45.070Z,98541.00
2022-09-11T19:59:14.376Z,98541.00
2022-09-11T20:01:43.089Z,98542.00
2022-09-11T20:04:11.436Z,98544.00
2022-09-11T20:06:39.699Z,98551.00
2022-09-11T20:11:55.942Z,98547.00
2022-09-11T20:14:23.349Z,98548.00
2022-09-11T20:16:50.710Z,98555.00
2022-09-11T20:19:18.156Z,98549.00
2022-09-11T20:21:45.407Z,98547.00
2022-09-11T20:24:12.757Z,98552.00
2022-09-11T20:26:40.059Z,98553.00
2022-09-11T20:29:15.196Z,98552.00
2022-09-11T20:31:48.803Z,98550.00
2022-09-11T20:34:20.269Z,98556.00
2022-09-11T20:36:48.130Z,98560.00
2022-09-11T20:39:16.388Z,98553.00
2022-09-11T20:41:44.883Z,98559.00
2022-09-11T20:44:12.364Z,98558.00
2022-09-11T20:46:40.010Z,98563.00
2022-09-11T20:49:07.344Z,98557.00
2022-09-11T20:51:34.908Z,98555.00
2022-09-11T20:54:03.618Z,98552.00
2022-09-11T20:56:31.376Z,98559.00
2022-09-11T20:59:00.962Z,98564.00
2022-09-11T21:01:32.641Z,98561.00
2022-09-11T21:04:04.032Z,98555.00
2022-09-11T21:06:34.750Z,98554.00
2022-09-11T21:09:11.055Z,98563.00
2022-09-11T21:11:42.504Z,98561.00
2022-09-11T21:14:13.584Z,98554.00
2022-09-11T21:16:41.251Z,98552.00
2022-09-11T21:19:10.064Z,98561.00
2022-09-11T21:21:40.616Z,98558.00
2022-09-11T21:24:13.769Z,98552.00
2022-09-11T21:26:45.503Z,98547.00
2022-09-11T21:29:23.657Z,98545.00
2022-09-11T21:32:09.129Z,98553.00
2022-09-11T21:34:44.155Z,98547.00
2022-09-11T21:37:18.131Z,98540.00
2022-09-11T21:40:09.052Z,98538.00
2022-09-11T21:45:41.644Z,98535.00
2022-09-11T21:48:54.011Z,98535.00
2022-09-11T21:51:49.576Z,98535.00
2022-09-11T21:54:20.500Z,98535.00
2022-09-11T21:56:47.869Z,98538.00
2022-09-11T21:59:15.588Z,98534.00
2022-09-11T22:01:42.906Z,98528.00
2022-09-11T22:04:10.182Z,98535.00
2022-09-11T22:06:37.613Z,98531.00
2022-09-11T22:09:04.895Z,98525.00
2022-09-11T22:11:32.276Z,98536.00
2022-09-11T22:13:59.561Z,98528.00
2022-09-11T22:16:28.072Z,98520.00
2022-09-11T22:18:56.012Z,98526.00
2022-09-11T22:21:24.492Z,98515.00
2022-09-11T22:23:52.407Z,98522.00
2022-09-11T22:26:23.834Z,98530.00
2022-09-11T22:28:51.835Z,98524.00
2022-09-11T22:31:24.269Z,98518.00
2022-09-11T22:33:54.006Z,98527.00
2022-09-11T22:36:29.302Z,98524.00
2022-09-11T22:38:58.935Z,98521.00
2022-09-11T22:41:27.356Z,98516.00
2022-09-11T22:43:54.609Z,98520.00
2022-09-11T22:46:23.745Z,98517.00
2022-09-11T22:48:51.063Z,98523.00
2022-09-11T22:51:18.376Z,98515.00
2022-09-11T22:53:45.951Z,98518.00
2022-09-11T22:56:14.006Z,98523.00
2022-09-11T22:58:41.648Z,98524.00
2022-09-11T23:01:21.146Z,98527.00
2022-09-11T23:03:54.565Z,98528.00
2022-09-11T23:06:41.123Z,98517.00
2022-09-11T23:09:16.633Z,98519.00
2022-09-11T23:11:47.906Z,98525.00
2022-09-11T23:14:15.620Z,98524.00
2022-09-11T23:16:43.833Z,98526.00
2022-09-11T23:19:14.835Z,98520.00
2022-09-11T23:21:42.954Z,98522.00
2022-09-11T23:24:14.627Z,98516.00
2022-09-11T23:26:43.347Z,98509.00
2022-09-11T23:29:12.298Z,98512.00
2022-09-11T23:31:41.551Z,98513.00
2022-09-11T23:34:13.848Z,98502.00
2022-09-11T23:36:41.232Z,98502.00
2022-09-11T23:39:08.521Z,98506.00
2022-09-11T23:41:35.827Z,98505.00
2022-09-11T23:44:03.891Z,98504.00
2022-09-11T23:46:31.246Z,98495.00
2022-09-11T23:48:58.624Z,98504.00
2022-09-11T23:51:27.521Z,98488.00
2022-09-11T23:53:54.828Z,98493.00
2022-09-11T23:56:22.571Z,98487.00
2022-09-11T23:58:51.434Z,98483.00
